createdAt,value
2023-01-31T00:04:03.128Z,66.5
2023-01-31T00:14:02.975Z,66.5
2023-01-31T00:24:03.108Z,67
2023-01-31T00:34:02.991Z,67
2023-01-31T00:44:03.142Z,68
2023-01-31T00:54:02.977Z,68.5
2023-01-31T01:04:03.104Z,68.5
2023-01-31T01:14:02.969Z,68.5
2023-01-31T01:24:03.160Z,68.5
2023-01-31T01:34:03.246Z,68.5
2023-01-31T01:44:03.123Z,68.5
2023-01-31T01:54:03.151Z,69
2023-01-31T02:04:03.075Z,69
2023-01-31T02:14:03.151Z,69
2023-01-31T02:24:03.091Z,69.5
2023-01-31T02:34:03.149Z,69.5
2023-01-31T02:44:03.263Z,70
2023-01-31T02:54:03.151Z,70
2023-01-31T03:04:03.268Z,70
2023-01-31T03:14:03.140Z,70
2023-01-31T03:24:03.263Z,70.5
2023-01-31T03:34:03.151Z,71
2023-01-31T03:44:03.283Z,71
2023-01-31T03:54:03.174Z,71.5
2023-01-31T04:04:03.308Z,71.5
2023-01-31T04:14:03.167Z,71.5
2023-01-31T04:24:03.292Z,72
2023-01-31T04:34:03.173Z,72
2023-01-31T04:44:03.292Z,72.5
2023-01-31T04:54:03.368Z,72.5
2023-01-31T05:04:03.295Z,73
2023-01-31T05:14:03.358Z,68.5
2023-01-31T05:24:03.689Z,59.5
2023-01-31T05:34:03.973Z,62
2023-01-31T05:44:03.275Z,64.5
2023-01-31T05:54:03.358Z,67
2023-01-31T06:04:03.478Z,68.5
2023-01-31T06:14:03.336Z,59.5
2023-01-31T06:24:03.458Z,59.5
2023-01-31T06:34:03.387Z,62.5
2023-01-31T06:44:03.484Z,65
2023-01-31T06:54:03.360Z,67
2023-01-31T07:04:03.501Z,68.5
2023-01-31T07:14:03.354Z,69.5
2023-01-31T07:24:03.493Z,62
2023-01-31T07:34:03.345Z,57.5
2023-01-31T07:44:03.480Z,60.5
2023-01-31T07:54:03.368Z,63.5
2023-01-31T08:04:18.537Z,65.5
2023-01-31T08:14:03.568Z,67.5
2023-01-31T08:24:03.503Z,68.5
2023-01-31T08:34:03.578Z,69
2023-01-31T08:44:04.692Z,57.5
2023-01-31T08:54:03.596Z,58.5
2023-01-31T09:04:03.523Z,61.5
2023-01-31T09:14:03.569Z,63
2023-01-31T09:24:03.524Z,65
2023-01-31T09:34:03.586Z,66
2023-01-31T09:44:03.506Z,67
2023-01-31T09:54:03.582Z,67.5
2023-01-31T10:04:03.759Z,68
2023-01-31T10:14:03.590Z,68
2023-01-31T10:24:03.762Z,68
2023-01-31T10:34:03.599Z,68
2023-01-31T10:44:03.791Z,67.5
2023-01-31T10:54:03.599Z,68
2023-01-31T11:04:03.804Z,68.5
2023-01-31T11:14:03.623Z,69
2023-01-31T11:24:03.735Z,69
2023-01-31T11:34:03.609Z,68.5
2023-01-31T11:44:03.715Z,67.5
2023-01-31T11:54:03.800Z,63
2023-01-31T12:04:04.517Z,63
2023-01-31T12:14:03.792Z,65
2023-01-31T12:24:03.716Z,66.5
2023-01-31T12:34:03.788Z,64
2023-01-31T12:44:03.704Z,60.5
2023-01-31T12:54:03.790Z,59
2023-01-31T13:04:03.917Z,56
2023-01-31T13:14:03.762Z,58.5
2023-01-31T13:24:03.897Z,59.5
2023-01-31T13:34:03.792Z,61
2023-01-31T13:44:03.892Z,61
2023-01-31T13:54:03.776Z,59.5
2023-01-31T14:04:03.897Z,58
2023-01-31T14:14:03.751Z,59.5
2023-01-31T14:24:03.883Z,60.5
2023-01-31T14:34:03.956Z,60
2023-01-31T14:44:03.878Z,59.5
2023-01-31T14:54:03.945Z,62
2023-01-31T15:04:03.881Z,63
2023-01-31T15:14:03.941Z,63.5
2023-01-31T15:24:03.863Z,64
2023-01-31T15:34:03.951Z,64
2023-01-31T15:44:03.877Z,64
2023-01-31T15:54:03.924Z,64
2023-01-31T16:04:04.051Z,64.5
2023-01-31T16:14:03.964Z,64.5
2023-01-31T16:24:04.074Z,64.5
2023-01-31T16:34:03.935Z,64.5
2023-01-31T16:44:04.053Z,65
2023-01-31T16:54:03.926Z,65
2023-01-31T17:04:04.104Z,65
2023-01-31T17:14:04.115Z,65.5
2023-01-31T17:24:04.080Z,65.5
2023-01-31T17:34:04.127Z,65.5
2023-01-31T17:44:04.029Z,65.5
2023-01-31T17:54:04.106Z,65.5
2023-01-31T18:04:04.104Z,65.5
2023-01-31T18:14:04.114Z,66
2023-01-31T18:24:04.029Z,66.5
2023-01-31T18:34:04.136Z,67
2023-01-31T18:44:04.260Z,57
2023-01-31T18:54:04.135Z,54.5
2023-01-31T19:04:04.250Z,57
2023-01-31T19:14:04.123Z,59
2023-01-31T19:24:04.376Z,50.5
2023-01-31T19:34:04.160Z,51.5
2023-01-31T19:44:04.548Z,54.5
2023-01-31T19:54:04.456Z,57
2023-01-31T20:04:04.531Z,58.5
2023-01-31T20:14:04.382Z,60.5
2023-01-31T20:24:04.360Z,62
2023-01-31T20:34:04.419Z,61
2023-01-31T20:44:04.436Z,54
2023-01-31T20:54:04.650Z,56
2023-01-31T21:04:04.265Z,58
2023-01-31T21:14:04.337Z,59.5
2023-01-31T21:24:04.412Z,60.5
2023-01-31T21:34:04.285Z,62
2023-01-31T21:44:04.426Z,62.5
2023-01-31T21:54:04.250Z,63.5
2023-01-31T22:04:04.413Z,64
2023-01-31T22:14:04.272Z,64.5
2023-01-31T22:24:04.428Z,64.5
2023-01-31T22:34:04.519Z,65
2023-01-31T22:44:04.396Z,65.5
2023-01-31T22:54:04.451Z,65.5
2023-01-31T23:04:04.440Z,66
2023-01-31T23:14:04.332Z,66.5
2023-01-31T23:24:04.487Z,66.5
2023-01-31T23:34:04.354Z,66.5
2023-01-31T23:44:04.481Z,67
2023-01-31T23:54:04.556Z,67
